createdAt,value
2022-11-22T00:03:58.930Z,1.42
2022-11-22T00:09:08.292Z,1.73
2022-11-22T00:14:11.135Z,1.55
2022-11-22T00:19:14.261Z,2.72
2022-11-22T00:21:41.881Z,1.92
2022-11-22T00:26:44.971Z,2.85
2022-11-22T00:31:49.314Z,1.83
2022-11-22T00:34:17.286Z,2.17
2022-11-22T00:39:20.078Z,1.52
2022-11-22T00:41:47.827Z,2.33
2022-11-22T00:44:15.409Z,1.88
2022-11-22T00:46:43.967Z,2.90
2022-11-22T00:49:13.671Z,2.38
2022-11-22T00:51:41.427Z,2.65
2022-11-22T00:54:09.194Z,1.90
2022-11-22T00:59:12.021Z,1.48
2022-11-22T01:01:39.715Z,2.60
2022-11-22T01:09:25.046Z,2.05
2022-11-22T01:11:53.168Z,2.05
2022-11-22T01:19:37.736Z,2.50
2022-11-22T01:24:40.442Z,2.45
2022-11-22T01:27:08.147Z,1.55
2022-11-22T01:29:35.736Z,2.00
2022-11-22T01:32:03.412Z,2.90
2022-11-22T01:34:31.016Z,3.08
2022-11-22T01:36:58.530Z,3.28
2022-11-22T01:50:35.427Z,3.05
2022-11-22T01:53:06.067Z,2.63
2022-11-22T02:08:37.850Z,2.22
2022-11-22T02:11:06.069Z,2.45
2022-11-22T02:13:35.645Z,2.65
2022-11-22T02:24:26.668Z,2.75
2022-11-22T02:48:57.942Z,3.35
2022-11-22T02:51:27.153Z,3.03
2022-11-22T02:53:55.142Z,2.10
2022-11-22T02:56:23.400Z,2.45
2022-11-22T03:06:50.388Z,2.70
2022-11-22T03:09:18.562Z,2.63
2022-11-22T03:19:44.670Z,1.98
2022-11-22T03:22:12.110Z,2.45
2022-11-22T03:24:39.520Z,1.92
2022-11-22T03:27:07.056Z,1.90
2022-11-22T03:29:34.527Z,2.22
2022-11-22T03:32:02.070Z,2.00
2022-11-22T03:34:29.543Z,1.70
2022-11-22T03:36:56.997Z,2.05
2022-11-22T03:39:24.494Z,2.22
2022-11-22T03:41:51.972Z,2.00
2022-11-22T03:44:19.415Z,2.33
2022-11-22T03:46:46.900Z,1.83
2022-11-22T03:49:14.556Z,1.25
2022-11-22T03:51:42.107Z,1.42
2022-11-22T03:54:09.685Z,1.85
2022-11-22T03:56:37.185Z,1.88
2022-11-22T03:59:04.620Z,2.00
2022-11-22T04:01:32.112Z,1.50
2022-11-22T04:03:59.634Z,2.17
2022-11-22T04:06:27.084Z,2.80
2022-11-22T04:08:54.688Z,1.77
2022-11-22T04:11:22.202Z,1.95
2022-11-22T04:14:07.893Z,1.70
2022-11-22T04:16:35.425Z,1.92
2022-11-22T04:19:02.952Z,2.50
2022-11-22T04:21:36.263Z,1.63
2022-11-22T04:26:49.816Z,1.60
2022-11-22T04:29:18.367Z,1.98
2022-11-22T04:32:04.222Z,1.00
2022-11-22T04:34:32.054Z,1.75
2022-11-22T04:37:00.185Z,2.45
2022-11-22T04:39:28.034Z,1.50
2022-11-22T04:42:14.859Z,1.65
2022-11-22T04:44:43.163Z,1.70
2022-11-22T04:47:35.292Z,1.83
2022-11-22T04:50:03.190Z,2.55
2022-11-22T04:52:48.926Z,1.38
2022-11-22T04:55:16.654Z,1.77
2022-11-22T04:57:44.231Z,1.90
2022-11-22T05:00:12.008Z,1.52
2022-11-22T05:02:39.631Z,2.15
2022-11-22T05:05:07.312Z,1.55
2022-11-22T05:07:35.364Z,1.35
2022-11-22T05:10:03.005Z,1.40
2022-11-22T05:12:30.625Z,2.25
2022-11-22T05:14:58.207Z,2.53
2022-11-22T05:17:25.776Z,1.55
2022-11-22T05:19:54.339Z,2.35
2022-11-22T05:22:42.170Z,2.15
2022-11-22T05:25:10.028Z,2.40
2022-11-22T05:27:37.854Z,1.58
2022-11-22T05:30:06.120Z,2.03
2022-11-22T05:32:33.834Z,2.20
2022-11-22T05:35:01.565Z,1.90
2022-11-22T05:37:29.207Z,1.98
2022-11-22T05:39:58.075Z,2.22
2022-11-22T05:42:25.637Z,1.73
2022-11-22T05:44:53.385Z,2.55
2022-11-22T05:47:20.936Z,2.00
2022-11-22T05:49:49.790Z,1.60
2022-11-22T05:52:17.410Z,2.22
2022-11-22T05:54:44.944Z,1.90
2022-11-22T05:57:12.847Z,1.08
2022-11-22T05:59:44.128Z,1.65
2022-11-22T06:02:11.989Z,1.77
2022-11-22T06:04:39.544Z,1.45
2022-11-22T06:07:09.967Z,1.38
2022-11-22T06:09:38.215Z,1.73
2022-11-22T06:12:05.908Z,1.40
2022-11-22T06:14:35.431Z,1.95
2022-11-22T06:17:06.110Z,1.40
2022-11-22T06:19:33.945Z,1.65
2022-11-22T06:22:01.484Z,1.83
2022-11-22T06:24:29.003Z,2.47
2022-11-22T06:26:56.572Z,1.60
2022-11-22T06:29:24.058Z,2.63
2022-11-22T06:31:52.227Z,2.17
2022-11-22T06:34:21.846Z,2.55
2022-11-22T06:36:49.386Z,2.03
2022-11-22T06:39:16.959Z,3.05
2022-11-22T06:41:44.513Z,2.05
2022-11-22T06:44:12.045Z,1.58
2022-11-22T06:46:39.742Z,3.97
2022-11-22T06:49:07.281Z,1.38
2022-11-22T06:51:34.826Z,1.67
2022-11-22T06:54:02.382Z,1.95
2022-11-22T06:56:33.621Z,2.17
2022-11-22T06:59:03.470Z,1.75
2022-11-22T07:01:31.560Z,2.10
2022-11-22T07:04:00.111Z,2.20
2022-11-22T07:06:28.468Z,1.70
2022-11-22T07:08:56.122Z,1.67
2022-11-22T07:11:24.952Z,2.03
2022-11-22T07:13:53.028Z,2.22
2022-11-22T07:16:21.155Z,1.95
2022-11-22T07:18:49.152Z,1.75
2022-11-22T07:21:19.325Z,2.38
2022-11-22T07:23:47.855Z,2.25
2022-11-22T07:26:15.942Z,1.83
2022-11-22T07:28:43.761Z,2.03
2022-11-22T07:31:12.254Z,2.33
2022-11-22T07:33:40.232Z,2.50
2022-11-22T07:36:12.370Z,2.28
2022-11-22T07:38:40.590Z,2.10
2022-11-22T07:41:08.633Z,3.15
2022-11-22T07:43:36.530Z,1.67
2022-11-22T07:46:08.866Z,2.50
2022-11-22T07:48:36.410Z,2.72
2022-11-22T07:51:05.709Z,2.75
2022-11-22T07:53:33.697Z,2.10
2022-11-22T07:56:05.510Z,1.88
2022-11-22T07:58:33.964Z,2.08
2022-11-22T08:01:09.132Z,2.90
2022-11-22T08:03:37.184Z,2.08
2022-11-22T08:06:05.845Z,2.17
2022-11-22T08:08:33.986Z,2.70
2022-11-22T08:11:01.926Z,1.63
2022-11-22T08:13:29.517Z,1.70
2022-11-22T08:16:00.883Z,2.00
2022-11-22T08:18:32.633Z,2.55
2022-11-22T08:21:04.639Z,2.72
2022-11-22T08:23:32.360Z,1.80
2022-11-22T08:26:00.697Z,2.05
2022-11-22T08:28:28.320Z,1.95
2022-11-22T08:31:04.095Z,2.47
2022-11-22T08:33:31.744Z,2.78
2022-11-22T08:35:59.261Z,1.92
2022-11-22T08:38:30.116Z,2.58
2022-11-22T08:40:57.729Z,2.40
2022-11-22T08:43:25.906Z,1.92
2022-11-22T08:46:02.767Z,2.00
2022-11-22T08:48:31.821Z,2.97
2022-11-22T08:51:00.639Z,3.47
2022-11-22T08:53:28.704Z,2.63
2022-11-22T08:55:56.592Z,2.72
2022-11-22T08:58:24.137Z,2.42
2022-11-22T09:00:51.723Z,2.55
2022-11-22T09:03:19.331Z,3.03
2022-11-22T09:08:36.709Z,3.17
2022-11-22T09:11:07.633Z,2.67
2022-11-22T09:13:35.272Z,2.10
2022-11-22T09:16:06.971Z,2.60
2022-11-22T09:18:34.949Z,3.80
2022-11-22T09:21:03.469Z,2.92
2022-11-22T09:23:31.155Z,2.50
2022-11-22T09:26:17.971Z,3.33
2022-11-22T09:28:47.060Z,2.40
2022-11-22T09:31:18.747Z,2.60
2022-11-22T09:33:46.871Z,3.28
2022-11-22T09:36:16.490Z,3.03
2022-11-22T09:38:44.142Z,3.38
2022-11-22T09:41:17.955Z,2.55
2022-11-22T09:44:01.973Z,2.53
2022-11-22T09:46:49.084Z,2.75
2022-11-22T09:49:22.568Z,2.67
2022-11-22T09:51:59.541Z,3.10
2022-11-22T09:54:29.489Z,2.53
2022-11-22T09:57:00.474Z,2.55
2022-11-22T09:59:35.418Z,2.65
2022-11-22T10:02:18.346Z,2.95
2022-11-22T10:04:55.653Z,2.53
2022-11-22T10:07:35.063Z,3.78
2022-11-22T10:10:05.744Z,3.53
2022-11-22T10:12:37.123Z,2.33
2022-11-22T10:15:28.106Z,2.42
2022-11-22T10:17:57.688Z,3.33
2022-11-22T10:20:26.445Z,3.65
2022-11-22T10:22:54.126Z,3.35
2022-11-22T10:25:23.234Z,3.17
2022-11-22T10:28:00.559Z,3.65
2022-11-22T10:30:31.585Z,3.45
2022-11-22T10:33:21.373Z,2.63
2022-11-22T10:35:55.167Z,1.95
2022-11-22T10:38:22.660Z,3.15
2022-11-22T10:40:58.100Z,3.33
2022-11-22T10:43:33.764Z,3.40
2022-11-22T10:46:07.395Z,2.65
2022-11-22T10:48:39.852Z,2.80
2022-11-22T10:51:26.006Z,2.97
2022-11-22T10:54:17.216Z,2.63
2022-11-22T10:56:56.246Z,2.58
2022-11-22T10:59:33.389Z,3.03
2022-11-22T11:02:07.197Z,2.70
2022-11-22T11:04:36.814Z,3.83
2022-11-22T11:07:13.543Z,2.65
2022-11-22T11:10:10.787Z,2.13
2022-11-22T11:12:44.728Z,3.38
2022-11-22T11:15:15.499Z,2.45
2022-11-22T11:17:44.983Z,2.92
2022-11-22T11:20:18.660Z,2.90
2022-11-22T11:25:37.919Z,3.10
2022-11-22T11:28:08.943Z,2.70
2022-11-22T11:30:57.966Z,3.40
2022-11-22T11:33:30.712Z,2.80
2022-11-22T11:36:03.399Z,2.58
2022-11-22T11:38:34.805Z,2.85
2022-11-22T11:41:20.965Z,3.00
2022-11-22T11:43:50.281Z,3.28
2022-11-22T11:46:22.939Z,3.40
2022-11-22T11:48:54.740Z,4.20
2022-11-22T11:51:22.352Z,3.25
2022-11-22T11:54:12.809Z,2.95
2022-11-22T11:56:59.808Z,2.45
2022-11-22T11:59:43.267Z,3.00
2022-11-22T12:02:15.388Z,2.83
2022-11-22T12:04:52.178Z,3.03
2022-11-22T12:07:38.892Z,2.40
2022-11-22T12:10:27.025Z,3.38
2022-11-22T12:13:04.167Z,3.20
2022-11-22T12:15:35.470Z,3.42
2022-11-22T12:18:12.438Z,3.17
2022-11-22T12:21:03.352Z,3.45
2022-11-22T12:23:51.044Z,3.45
2022-11-22T12:26:19.435Z,2.75
2022-11-22T12:28:47.716Z,4.82
2022-11-22T12:31:32.909Z,4.50
2022-11-22T12:34:02.114Z,3.47
2022-11-22T12:36:52.883Z,3.33
2022-11-22T12:39:28.097Z,2.63
2022-11-22T12:42:00.591Z,3.55
2022-11-22T12:44:29.870Z,3.83
2022-11-22T12:47:00.678Z,3.78
2022-11-22T12:49:31.376Z,3.92
2022-11-22T12:52:12.981Z,3.30
2022-11-22T12:55:00.324Z,4.25
2022-11-22T12:57:39.821Z,4.97
2022-11-22T13:00:24.934Z,3.30
2022-11-22T13:02:59.959Z,3.88
2022-11-22T13:08:34.215Z,3.22
2022-11-22T13:11:20.636Z,4.30
2022-11-22T13:13:58.665Z,3.03
2022-11-22T13:16:29.204Z,3.80
2022-11-22T13:18:59.969Z,3.30
2022-11-22T13:21:31.914Z,4.30
2022-11-22T13:24:19.170Z,2.70
2022-11-22T13:27:05.287Z,3.53
2022-11-22T13:29:34.610Z,3.28
2022-11-22T13:32:02.207Z,3.95
2022-11-22T13:34:30.548Z,4.93
2022-11-22T13:37:05.602Z,3.92
2022-11-22T13:39:39.200Z,3.63
2022-11-22T13:42:07.973Z,4.28
2022-11-22T13:44:40.069Z,3.60
2022-11-22T13:47:13.962Z,2.83
2022-11-22T13:49:48.253Z,3.33
2022-11-22T13:52:16.782Z,3.60
2022-11-22T13:54:48.927Z,4.15
2022-11-22T13:57:30.695Z,3.58
2022-11-22T14:00:16.407Z,4.13
2022-11-22T14:02:48.447Z,3.63
2022-11-22T14:05:20.513Z,3.53
2022-11-22T14:07:55.011Z,4.07
2022-11-22T14:10:42.824Z,4.07
2022-11-22T14:13:10.485Z,4.03
2022-11-22T14:15:38.128Z,4.20
2022-11-22T14:18:05.726Z,4.10
2022-11-22T14:20:41.158Z,4.13
2022-11-22T14:25:58.602Z,4.70
2022-11-22T14:28:32.412Z,3.92
2022-11-22T14:31:00.308Z,4.05
2022-11-22T14:33:31.642Z,4.57
2022-11-22T14:36:08.614Z,3.42
2022-11-22T14:38:37.025Z,4.78
2022-11-22T14:41:26.509Z,3.25
2022-11-22T14:44:01.113Z,3.85
2022-11-22T14:46:52.385Z,3.88
2022-11-22T14:49:34.079Z,4.20
2022-11-22T14:52:02.647Z,4.43
2022-11-22T14:57:13.576Z,3.42
2022-11-22T15:00:10.832Z,4.82
2022-11-22T15:09:19.646Z,3.60
2022-11-22T15:09:21.460Z,4.45
2022-11-22T15:14:56.503Z,3.60
2022-11-22T15:59:28.906Z,3.63
2022-11-22T16:10:40.236Z,5.45
2022-11-22T16:13:15.959Z,4.07
2022-11-22T16:27:03.416Z,4.38
2022-11-22T16:32:12.907Z,4.90
2022-11-22T16:37:37.838Z,4.82
2022-11-22T16:40:06.888Z,4.55
2022-11-22T16:53:22.585Z,3.17
2022-11-22T16:55:50.951Z,3.33
2022-11-22T16:58:27.925Z,2.93
2022-11-22T17:03:38.416Z,4.10
2022-11-22T17:11:45.092Z,5.28
2022-11-22T18:04:45.646Z,5.07
2022-11-22T18:20:31.689Z,4.13
2022-11-22T18:22:59.191Z,3.35
2022-11-22T18:25:26.711Z,4.57
2022-11-22T18:27:54.280Z,2.67
2022-11-22T18:30:21.776Z,3.15
2022-11-22T18:32:49.336Z,3.90
2022-11-22T18:35:16.821Z,3.15
2022-11-22T18:37:44.745Z,3.33
2022-11-22T18:40:12.725Z,2.22
2022-11-22T18:42:40.204Z,2.88
2022-11-22T18:45:08.726Z,5.57
2022-11-22T18:47:36.243Z,2.65
2022-11-22T18:50:04.859Z,3.10
2022-11-22T18:52:35.216Z,4.28
2022-11-22T18:55:02.878Z,3.33
2022-11-22T18:57:30.435Z,4.78
2022-11-22T18:59:57.928Z,5.03
2022-11-22T19:02:26.866Z,2.75
2022-11-22T19:04:54.693Z,3.40
2022-11-22T19:07:22.536Z,2.85
2022-11-22T19:09:50.909Z,4.18
2022-11-22T19:12:19.968Z,3.72
2022-11-22T19:14:47.487Z,2.50
2022-11-22T19:17:19.971Z,3.17
2022-11-22T19:19:49.378Z,4.13
2022-11-22T19:22:16.932Z,3.35
2022-11-22T19:24:47.317Z,2.22
2022-11-22T19:27:15.540Z,3.13
2022-11-22T19:29:43.139Z,3.03
2022-11-22T19:32:10.716Z,2.70
2022-11-22T19:34:38.302Z,3.40
2022-11-22T19:37:05.871Z,2.50
2022-11-22T19:39:33.779Z,3.22
2022-11-22T19:42:01.366Z,2.88
2022-11-22T19:44:28.972Z,4.13
2022-11-22T19:46:56.496Z,2.60
2022-11-22T19:49:24.049Z,2.88
2022-11-22T19:51:51.730Z,3.95
2022-11-22T19:54:19.315Z,3.03
2022-11-22T19:56:46.885Z,3.00
2022-11-22T19:59:16.722Z,2.63
2022-11-22T20:01:44.450Z,3.45
2022-11-22T20:04:13.244Z,2.63
2022-11-22T20:06:43.164Z,3.33
2022-11-22T20:09:13.886Z,3.08
2022-11-22T20:11:42.279Z,3.22
2022-11-22T20:14:10.216Z,3.83
2022-11-22T20:16:42.064Z,5.13
2022-11-22T20:19:10.407Z,5.90
2022-11-22T20:21:38.404Z,5.15
2022-11-22T20:24:06.598Z,3.20
2022-11-22T20:26:34.695Z,3.53
2022-11-22T20:29:07.567Z,2.90
2022-11-22T20:31:38.865Z,3.67
2022-11-22T20:34:06.387Z,4.60
2022-11-22T20:36:35.477Z,4.40
2022-11-22T20:39:09.512Z,4.65
2022-11-22T20:41:38.644Z,5.05
2022-11-22T20:44:06.265Z,4.15
2022-11-22T20:46:36.220Z,4.03
2022-11-22T20:49:03.930Z,4.63
2022-11-22T20:51:31.908Z,4.13
2022-11-22T20:53:59.965Z,3.78
2022-11-22T20:56:27.561Z,3.13
2022-11-22T20:58:55.191Z,3.75
2022-11-22T21:01:23.773Z,2.72
2022-11-22T21:03:52.077Z,2.83
2022-11-22T21:06:22.121Z,3.30
2022-11-22T21:08:50.461Z,3.88
2022-11-22T21:11:19.128Z,4.32
2022-11-22T21:13:47.823Z,6.20
2022-11-22T21:16:25.732Z,3.95
2022-11-22T21:18:57.952Z,3.53
2022-11-22T21:21:26.357Z,2.70
2022-11-22T21:23:55.022Z,4.60
2022-11-22T21:26:23.136Z,3.08
2022-11-22T21:28:51.576Z,3.35
2022-11-22T21:31:20.670Z,4.20
2022-11-22T21:33:50.487Z,3.30
2022-11-22T21:36:19.477Z,3.25
2022-11-22T21:38:50.414Z,3.65
2022-11-22T21:44:07.191Z,4.82
2022-11-22T21:46:35.462Z,5.68
2022-11-22T21:49:04.283Z,3.25
2022-11-22T21:51:36.096Z,4.45
2022-11-22T21:54:04.444Z,3.50
2022-11-22T21:56:32.978Z,3.60
2022-11-22T21:59:00.818Z,4.15
2022-11-22T22:01:29.444Z,4.05
2022-11-22T22:03:57.660Z,3.55
2022-11-22T22:06:26.076Z,3.88
2022-11-22T22:08:53.748Z,4.80
2022-11-22T22:11:21.335Z,3.38
2022-11-22T22:13:49.763Z,4.47
2022-11-22T22:16:19.545Z,4.30
2022-11-22T22:18:49.212Z,4.72
2022-11-22T22:21:17.337Z,4.78
2022-11-22T22:23:44.853Z,3.50
2022-11-22T22:26:13.832Z,3.63
2022-11-22T22:28:41.875Z,4.50
2022-11-22T22:31:13.565Z,4.60
2022-11-22T22:33:41.886Z,4.93
2022-11-22T22:36:10.879Z,4.05
2022-11-22T22:38:39.199Z,4.68
2022-11-22T22:41:07.151Z,4.07
2022-11-22T22:43:37.372Z,4.18
2022-11-22T22:46:14.346Z,4.15
2022-11-22T22:48:42.645Z,3.45
2022-11-22T22:51:18.782Z,4.68
2022-11-22T22:53:46.645Z,3.63
2022-11-22T22:56:16.590Z,3.80
2022-11-22T22:58:44.240Z,3.95
2022-11-22T23:01:16.652Z,3.55
2022-11-22T23:03:48.322Z,4.50
2022-11-22T23:06:16.342Z,3.72
2022-11-22T23:08:49.293Z,3.47
2022-11-22T23:11:17.653Z,4.32
2022-11-22T23:13:46.026Z,4.45
2022-11-22T23:16:15.004Z,4.20
2022-11-22T23:18:43.815Z,4.63
2022-11-22T23:21:12.619Z,4.55
2022-11-22T23:23:40.221Z,3.15
2022-11-22T23:26:09.271Z,4.45
2022-11-22T23:28:37.011Z,3.47
2022-11-22T23:31:09.075Z,2.65
2022-11-22T23:33:36.986Z,3.80
2022-11-22T23:36:05.668Z,3.13
2022-11-22T23:38:35.729Z,3.58
2022-11-22T23:41:03.225Z,3.25
2022-11-22T23:43:31.290Z,3.83
2022-11-22T23:45:59.463Z,3.47
2022-11-22T23:48:27.762Z,3.45
2022-11-22T23:50:55.284Z,3.45
2022-11-22T23:53:22.971Z,4.72
2022-11-22T23:55:50.490Z,4.97
2022-11-22T23:58:19.371Z,4.38
